Time;durP1;ratioP1;P1;durP2;ratioP2;P2;SDS_P1;SDS_P2;PMS_P1;PMS_P2;Temp;Humidity;BMP_temperature;BMP_pressure;BME280_temperature;BME280_humidity;BME280_pressure;Samples;Min_cycle;Max_cycle;Signal;HPM_P1;HPM_P2
2021/12/14 00:00:02;;;;;;;10.33;7.17;;;11.40;99.90;;;;;;5008203;28;20305;-24
2021/12/14 00:02:30;;;;;;;10.30;7.13;;;11.40;99.90;;;;;;5008844;28;20201;-24
2021/12/14 00:05:00;;;;;;;8.87;6.70;;;11.30;99.90;;;;;;5008656;28;20609;-24
2021/12/14 00:07:28;;;;;;;10.43;7.40;;;11.30;99.90;;;;;;5007200;28;20711;-24
2021/12/14 00:10:10;;;;;;;9.63;7.00;;;11.30;99.90;;;;;;5015412;28;20209;-24
2021/12/14 00:13:22;;;;;;;10.43;7.37;;;11.30;99.90;;;;;;5028196;28;20535;-24
2021/12/14 00:15:33;;;;;;;9.57;6.87;;;11.30;99.90;;;;;;5025365;28;20503;-24
2021/12/14 00:18:10;;;;;;;8.53;7.13;;;11.30;99.90;;;;;;5027846;28;20232;-24
2021/12/14 00:20:43;;;;;;;9.37;6.83;;;11.20;99.90;;;;;;5026664;28;20568;-24
2021/12/14 00:25:50;;;;;;;10.40;7.13;;;11.20;99.90;;;;;;5027876;28;20254;-24
2021/12/14 00:28:20;;;;;;;9.73;6.93;;;11.20;99.90;;;;;;5025762;28;20201;-24
2021/12/14 00:30:50;;;;;;;9.77;6.87;;;11.20;99.90;;;;;;5024985;28;20225;-24
2021/12/14 00:33:21;;;;;;;11.43;7.67;;;11.20;99.90;;;;;;5007673;28;20356;-24
2021/12/14 00:35:49;;;;;;;11.27;7.00;;;11.20;99.90;;;;;;5008474;28;20605;-26
2021/12/14 00:38:22;;;;;;;11.40;7.60;;;11.20;99.90;;;;;;5006987;28;20288;-26
2021/12/14 00:41:00;;;;;;;9.63;7.10;;;11.20;99.90;;;;;;5024938;28;20248;-26
2021/12/14 00:43:30;;;;;;;12.97;7.87;;;11.20;99.90;;;;;;5018343;28;20204;-26
2021/12/14 00:46:00;;;;;;;12.53;7.33;;;11.10;99.90;;;;;;5027871;28;20697;-26
2021/12/14 00:48:27;;;;;;;11.00;7.83;;;11.10;99.90;;;;;;5020337;28;20197;-25
2021/12/14 00:50:57;;;;;;;10.80;7.47;;;11.10;99.90;;;;;;5007959;28;20229;-25
2021/12/14 00:53:26;;;;;;;10.93;7.37;;;11.10;99.90;;;;;;5005423;28;20202;-25
2021/12/14 00:55:58;;;;;;;10.87;7.20;;;11.10;99.90;;;;;;5022641;28;20632;-23
2021/12/14 00:58:28;;;;;;;10.27;7.57;;;11.00;99.90;;;;;;5007792;28;20577;-23
2021/12/14 01:01:03;;;;;;;10.90;7.37;;;11.00;99.90;;;;;;5008346;28;20209;-23
2021/12/14 01:03:33;;;;;;;12.43;7.33;;;11.00;99.90;;;;;;5021924;28;20717;-23
2021/12/14 01:06:03;;;;;;;11.43;7.50;;;11.00;99.90;;;;;;5017319;28;20209;-23
2021/12/14 01:08:34;;;;;;;10.10;6.93;;;11.00;99.90;;;;;;5006612;28;20608;-23
2021/12/14 01:11:10;;;;;;;12.37;7.77;;;11.00;99.90;;;;;;5006508;28;20675;-22
2021/12/14 01:13:43;;;;;;;12.20;7.20;;;11.00;99.90;;;;;;5007601;28;20205;-23
2021/12/14 01:16:30;;;;;;;10.33;7.00;;;10.90;99.90;;;;;;5006705;28;20222;-23
2021/12/14 01:19:13;;;;;;;10.53;7.07;;;10.90;99.90;;;;;;5006134;28;20214;-23
2021/12/14 01:25:13;;;;;;;11.00;7.07;;;10.90;99.90;;;;;;5011388;28;20548;-23
2021/12/14 01:27:20;;;;;;;9.73;6.90;;;10.90;99.90;;;;;;5001078;28;20308;-22
2021/12/14 01:29:53;;;;;;;12.47;7.33;;;10.90;99.90;;;;;;5011308;28;20738;-23
2021/12/14 01:32:26;;;;;;;13.40;7.30;;;10.90;99.90;;;;;;5011186;28;20264;-24
2021/12/14 01:34:56;;;;;;;11.77;7.80;;;10.90;99.90;;;;;;5011568;28;20213;-23
2021/12/14 01:37:29;;;;;;;11.53;7.37;;;10.90;99.90;;;;;;5018021;28;20221;-23
2021/12/14 01:40:04;;;;;;;12.00;7.67;;;10.80;99.90;;;;;;5018481;28;20194;-23
2021/12/14 01:42:41;;;;;;;11.90;7.13;;;10.80;99.90;;;;;;5011085;28;20647;-23
2021/12/14 01:45:20;;;;;;;11.50;7.63;;;10.80;99.90;;;;;;5011043;28;20208;-23
2021/12/14 01:47:55;;;;;;;10.90;7.07;;;10.80;99.90;;;;;;5011072;28;20648;-23
2021/12/14 01:50:36;;;;;;;11.83;7.67;;;10.80;99.90;;;;;;5011507;28;20200;-23
2021/12/14 01:53:04;;;;;;;13.53;8.03;;;10.80;99.90;;;;;;5009669;28;20209;-23
2021/12/14 01:55:35;;;;;;;10.90;7.67;;;10.80;99.90;;;;;;5011122;28;20233;-23
2021/12/14 01:58:06;;;;;;;11.93;7.93;;;10.80;99.90;;;;;;5011073;28;20285;-23
2021/12/14 02:00:43;;;;;;;12.33;8.43;;;10.80;99.90;;;;;;5021732;28;20189;-23
2021/12/14 02:03:14;;;;;;;13.40;8.20;;;10.80;99.90;;;;;;5030287;28;20449;-23
2021/12/14 02:05:48;;;;;;;14.47;8.63;;;10.80;99.90;;;;;;5022887;28;20209;-23
2021/12/14 02:08:28;;;;;;;15.30;9.03;;;10.80;99.90;;;;;;5028524;28;20200;-23
2021/12/14 02:10:58;;;;;;;13.30;8.83;;;10.80;99.90;;;;;;5011805;28;20224;-23
2021/12/14 02:13:31;;;;;;;17.53;9.50;;;10.80;99.90;;;;;;5021751;28;20247;-23
2021/12/14 02:15:59;;;;;;;15.13;9.87;;;10.80;99.90;;;;;;5025738;28;20232;-23
2021/12/14 02:18:53;;;;;;;17.20;10.33;;;10.80;99.90;;;;;;5030100;28;20217;-23
2021/12/14 02:21:23;;;;;;;16.17;10.00;;;10.70;99.90;;;;;;5029222;28;20201;-23
2021/12/14 02:23:57;;;;;;;15.17;9.47;;;10.70;99.90;;;;;;5029406;28;20734;-24
2021/12/14 02:26:29;;;;;;;14.43;9.60;;;10.70;99.90;;;;;;5027926;28;20197;-24
2021/12/14 02:29:00;;;;;;;15.93;10.57;;;10.70;99.90;;;;;;5029857;28;20204;-24
2021/12/14 02:31:28;;;;;;;13.30;8.90;;;10.70;99.90;;;;;;5028259;28;20258;-24
2021/12/14 02:33:59;;;;;;;14.10;8.80;;;10.70;99.90;;;;;;5029734;28;20683;-24
2021/12/14 02:36:38;;;;;;;12.27;8.50;;;10.70;99.90;;;;;;5011813;28;20236;-23
2021/12/14 02:39:22;;;;;;;11.33;8.33;;;10.70;99.90;;;;;;5009487;28;20289;-24
2021/12/14 02:41:56;;;;;;;12.03;8.27;;;10.70;99.90;;;;;;5021578;28;20532;-24
2021/12/14 02:44:23;;;;;;;11.87;8.57;;;10.70;99.90;;;;;;5029687;28;20232;-24
2021/12/14 02:46:59;;;;;;;10.77;7.90;;;10.70;99.90;;;;;;5027219;28;20706;-23
2021/12/14 02:49:30;;;;;;;9.27;7.10;;;10.70;99.90;;;;;;5010030;28;20746;-23
2021/12/14 02:52:03;;;;;;;11.53;7.83;;;10.70;99.90;;;;;;5008933;28;20272;-23
2021/12/14 02:54:43;;;;;;;9.30;7.30;;;10.70;99.90;;;;;;5024061;28;20256;-23
2021/12/14 02:57:21;;;;;;;9.57;7.27;;;10.70;99.90;;;;;;5029469;28;20575;-23
2021/12/14 02:59:53;;;;;;;9.17;7.13;;;10.70;99.90;;;;;;5029394;28;20204;-23
2021/12/14 03:02:29;;;;;;;8.50;6.33;;;10.60;99.90;;;;;;5029626;28;20313;-24
2021/12/14 03:05:04;;;;;;;10.30;7.00;;;10.70;99.90;;;;;;5028341;28;20219;-24
2021/12/14 03:07:43;;;;;;;9.13;7.07;;;10.70;99.90;;;;;;5018474;28;20584;-24
2021/12/14 03:10:31;;;;;;;7.73;6.77;;;10.60;99.90;;;;;;5009838;28;20223;-24
2021/12/14 03:13:03;;;;;;;8.37;6.17;;;10.60;99.90;;;;;;5014034;28;20204;-24
2021/12/14 03:15:48;;;;;;;8.73;7.10;;;10.60;99.90;;;;;;5029496;28;20225;-24
2021/12/14 03:18:20;;;;;;;8.23;6.77;;;10.60;99.90;;;;;;5029079;28;20208;-25
2021/12/14 03:20:54;;;;;;;7.83;5.97;;;10.60;99.90;;;;;;5026510;28;20196;-23
2021/12/14 03:23:29;;;;;;;8.60;6.77;;;10.60;99.90;;;;;;5007966;28;20209;-24
2021/12/14 03:26:00;;;;;;;8.47;7.10;;;10.50;99.90;;;;;;5007755;28;20588;-23
2021/12/14 03:28:29;;;;;;;8.20;6.63;;;10.50;99.90;;;;;;5008964;28;21011;-24
2021/12/14 03:31:02;;;;;;;10.07;6.80;;;10.50;99.90;;;;;;5007796;28;20618;-24
2021/12/14 03:33:35;;;;;;;9.33;7.20;;;10.50;99.90;;;;;;5008881;28;20213;-24
2021/12/14 03:36:16;;;;;;;8.97;7.17;;;10.50;99.90;;;;;;5011861;28;20430;-24
2021/12/14 03:38:57;;;;;;;8.83;6.97;;;10.50;99.90;;;;;;5017063;28;20664;-24
2021/12/14 03:41:32;;;;;;;11.03;8.00;;;10.50;99.90;;;;;;5008967;28;20205;-24
2021/12/14 03:44:11;;;;;;;9.70;7.33;;;10.50;99.90;;;;;;5008786;28;20693;-24
2021/12/14 03:46:51;;;;;;;9.50;7.30;;;10.50;99.90;;;;;;5008532;28;20244;-24
2021/12/14 03:49:28;;;;;;;8.73;7.10;;;10.50;99.90;;;;;;5007762;28;20696;-24
2021/12/14 03:51:56;;;;;;;10.17;7.40;;;10.50;99.90;;;;;;5007612;28;20561;-24
2021/12/14 03:54:23;;;;;;;10.83;7.73;;;10.50;99.90;;;;;;5022100;28;20311;-24
2021/12/14 03:56:54;;;;;;;9.47;7.70;;;10.50;99.90;;;;;;5027781;28;20299;-24
2021/12/14 03:59:26;;;;;;;10.63;7.20;;;10.50;99.90;;;;;;5026950;28;20296;-24
2021/12/14 04:01:59;;;;;;;11.70;7.90;;;10.50;99.90;;;;;;5028163;28;20283;-24
2021/12/14 04:04:43;;;;;;;10.33;8.27;;;10.50;99.90;;;;;;5028414;28;20711;-24
2021/12/14 04:07:15;;;;;;;9.63;7.63;;;10.50;99.90;;;;;;5025234;28;20277;-24
2021/12/14 04:09:43;;;;;;;9.63;7.20;;;10.50;99.90;;;;;;5028096;28;20212;-24
2021/12/14 04:12:16;;;;;;;8.80;7.37;;;10.40;99.90;;;;;;5017225;28;20205;-24
2021/12/14 04:14:54;;;;;;;10.10;7.20;;;10.40;99.90;;;;;;5008657;28;20221;-24
2021/12/14 04:17:24;;;;;;;11.50;7.67;;;10.40;99.90;;;;;;5026834;28;20200;-24
2021/12/14 04:19:54;;;;;;;9.37;7.20;;;10.40;99.90;;;;;;5028367;28;20233;-24
2021/12/14 04:22:25;;;;;;;9.37;7.20;;;10.40;99.90;;;;;;5024969;28;20205;-24
2021/12/14 04:24:56;;;;;;;9.80;7.57;;;10.40;99.90;;;;;;5026616;28;20291;-24
2021/12/14 04:27:29;;;;;;;8.77;7.17;;;10.40;99.90;;;;;;5008865;28;20252;-24
2021/12/14 04:29:59;;;;;;;10.63;7.40;;;10.40;99.90;;;;;;5008670;28;20229;-24
2021/12/14 04:32:32;;;;;;;11.33;8.03;;;10.40;99.90;;;;;;5008002;28;20628;-24
2021/12/14 04:34:59;;;;;;;9.17;7.93;;;10.40;99.90;;;;;;5008061;28;20213;-24
2021/12/14 04:37:27;;;;;;;8.90;7.60;;;10.40;99.90;;;;;;5005901;28;20198;-24
2021/12/14 04:40:17;;;;;;;11.97;8.40;;;10.40;99.90;;;;;;5008036;28;20206;-24
2021/12/14 04:53:56;;;;;;;10.13;8.10;;;10.40;99.90;;;;;;5006950;28;20201;-24
2021/12/14 04:56:29;;;;;;;11.33;8.60;;;10.40;99.90;;;;;;5020292;28;20783;-24
2021/12/14 04:59:05;;;;;;;9.93;8.00;;;10.40;99.90;;;;;;5012294;28;20198;-24
2021/12/14 05:01:37;;;;;;;10.47;8.93;;;10.40;99.90;;;;;;5012466;28;20213;-24
2021/12/14 05:04:09;;;;;;;11.77;9.10;;;10.40;99.90;;;;;;5012470;28;20595;-24
2021/12/14 05:09:38;;;;;;;12.83;9.43;;;10.40;99.90;;;;;;5009806;28;20210;-24
2021/12/14 05:12:13;;;;;;;11.70;9.33;;;10.40;99.90;;;;;;5026188;28;20205;-24
2021/12/14 05:14:42;;;;;;;11.60;9.13;;;10.40;99.90;;;;;;5011496;28;20213;-24
2021/12/14 05:17:23;;;;;;;12.23;9.73;;;10.40;99.90;;;;;;5011501;28;20198;-24
2021/12/14 05:19:52;;;;;;;12.90;9.93;;;10.40;99.90;;;;;;5014190;28;20213;-24
2021/12/14 05:22:23;;;;;;;14.50;10.17;;;10.40;99.90;;;;;;5028635;28;20213;-24
2021/12/14 05:24:57;;;;;;;12.67;9.80;;;10.40;99.90;;;;;;5029507;28;20212;-24
2021/12/14 05:27:31;;;;;;;12.40;9.67;;;10.40;99.90;;;;;;5031202;28;20201;-24
2021/12/14 05:30:12;;;;;;;13.17;10.80;;;10.50;99.90;;;;;;5031005;28;20743;-26
2021/12/14 05:32:40;;;;;;;14.23;10.57;;;10.40;99.90;;;;;;5030804;28;20232;-26
2021/12/14 05:35:11;;;;;;;13.67;10.20;;;10.40;99.90;;;;;;5030831;28;20607;-24
2021/12/14 05:37:46;;;;;;;14.07;10.77;;;10.40;99.90;;;;;;5027243;28;20201;-24
2021/12/14 05:40:37;;;;;;;13.27;10.10;;;10.40;99.90;;;;;;5030918;28;20203;-24
2021/12/14 05:43:14;;;;;;;16.97;11.00;;;10.40;99.90;;;;;;5024519;28;20806;-24
2021/12/14 05:45:46;;;;;;;14.10;11.17;;;10.40;99.90;;;;;;5010725;28;20205;-24
2021/12/14 05:48:19;;;;;;;15.43;11.40;;;10.40;99.90;;;;;;4993262;28;20208;-24
2021/12/14 05:50:50;;;;;;;17.07;11.50;;;10.40;99.90;;;;;;5010591;28;20244;-24
2021/12/14 05:53:22;;;;;;;14.77;11.57;;;10.40;99.90;;;;;;5008660;28;20271;-24
2021/12/14 05:55:53;;;;;;;16.30;11.87;;;10.40;99.90;;;;;;5010284;28;20536;-24
2021/12/14 05:58:23;;;;;;;16.43;11.87;;;10.40;99.90;;;;;;5009947;28;20225;-24
2021/12/14 06:00:58;;;;;;;16.90;11.80;;;10.40;99.90;;;;;;5017246;28;20201;-24
2021/12/14 06:03:33;;;;;;;16.53;11.80;;;10.40;99.90;;;;;;5021251;28;20310;-24
2021/12/14 06:06:02;;;;;;;15.87;11.80;;;10.40;99.90;;;;;;5015109;28;20209;-24
2021/12/14 06:08:34;;;;;;;17.00;12.37;;;10.40;99.90;;;;;;5013246;28;20197;-24
2021/12/14 06:11:04;;;;;;;17.17;12.80;;;10.50;99.90;;;;;;5014956;28;20210;-24
2021/12/14 06:13:37;;;;;;;15.90;11.83;;;10.50;99.90;;;;;;5016139;28;20209;-24
2021/12/14 06:16:04;;;;;;;17.77;13.00;;;10.50;99.90;;;;;;5014135;28;20233;-24
2021/12/14 06:18:31;;;;;;;17.30;12.03;;;10.40;99.90;;;;;;5014326;28;20216;-24
2021/12/14 06:21:01;;;;;;;16.03;11.93;;;10.40;99.90;;;;;;5016280;28;20232;-24
2021/12/14 06:23:33;;;;;;;19.47;12.27;;;10.50;99.90;;;;;;5023082;28;20588;-24
2021/12/14 06:26:03;;;;;;;16.17;11.77;;;10.50;99.90;;;;;;5026547;28;20375;-24
2021/12/14 06:28:32;;;;;;;16.33;11.67;;;10.50;99.90;;;;;;5021993;28;20205;-24
2021/12/14 06:31:00;;;;;;;15.37;11.20;;;10.40;99.90;;;;;;5028792;28;20212;-24
2021/12/14 06:33:33;;;;;;;16.93;12.37;;;10.40;99.90;;;;;;5016701;28;20624;-23
2021/12/14 06:36:03;;;;;;;14.00;10.70;;;10.40;99.90;;;;;;5029151;28;20232;-24
2021/12/14 06:38:34;;;;;;;15.70;11.37;;;10.40;99.90;;;;;;5027316;28;20200;-24
2021/12/14 06:41:02;;;;;;;15.70;10.70;;;10.40;99.90;;;;;;5023428;28;20217;-24
2021/12/14 06:43:56;;;;;;;14.97;11.07;;;10.40;99.90;;;;;;5016612;28;20210;-24
2021/12/14 06:46:29;;;;;;;18.47;11.67;;;10.40;99.90;;;;;;5025193;28;20205;-24
2021/12/14 06:49:07;;;;;;;17.27;12.03;;;10.40;99.90;;;;;;5024213;28;20299;-24
2021/12/14 06:51:46;;;;;;;16.90;11.93;;;10.40;99.90;;;;;;4987918;28;1138153;-24
2021/12/14 06:54:18;;;;;;;18.13;12.00;;;10.40;99.90;;;;;;5028736;28;20220;-24
2021/12/14 06:56:57;;;;;;;15.93;11.40;;;10.40;99.90;;;;;;5023668;28;20261;-24
2021/12/14 06:59:34;;;;;;;17.13;11.90;;;10.40;99.90;;;;;;5018784;28;20204;-24
2021/12/14 07:02:07;;;;;;;18.80;12.30;;;10.40;99.90;;;;;;5014736;28;20206;-24
2021/12/14 07:04:39;;;;;;;20.07;13.40;;;10.40;99.90;;;;;;5020057;28;20193;-24
2021/12/14 07:07:14;;;;;;;19.50;13.87;;;10.40;99.90;;;;;;5005644;28;20631;-24
2021/12/14 07:09:50;;;;;;;20.47;14.07;;;10.40;99.90;;;;;;5009368;28;20236;-24
2021/12/14 07:12:36;;;;;;;21.93;15.30;;;10.40;99.90;;;;;;5017095;28;20214;-24
2021/12/14 07:15:10;;;;;;;22.03;15.53;;;10.40;99.90;;;;;;5014134;28;20239;-23
2021/12/14 07:17:53;;;;;;;22.93;15.63;;;10.40;99.90;;;;;;5035431;28;20197;-23
2021/12/14 07:20:30;;;;;;;23.87;15.07;;;10.40;99.90;;;;;;5012851;28;20193;-23
2021/12/14 07:23:33;;;;;;;23.60;15.67;;;10.40;99.90;;;;;;5023021;28;20286;-22
2021/12/14 07:26:10;;;;;;;24.03;16.70;;;10.40;99.90;;;;;;5027336;28;20595;-23
2021/12/14 07:28:45;;;;;;;24.60;16.77;;;10.40;99.90;;;;;;5020438;28;20202;-23
2021/12/14 07:31:22;;;;;;;26.07;17.67;;;10.40;99.90;;;;;;5014628;28;20220;-23
2021/12/14 07:33:57;;;;;;;26.47;17.83;;;10.40;99.90;;;;;;5016351;28;20205;-23
2021/12/14 07:36:33;;;;;;;24.70;16.67;;;10.40;99.90;;;;;;5010586;28;20231;-23
2021/12/14 07:39:11;;;;;;;26.20;17.17;;;10.40;99.90;;;;;;5006522;28;20213;-23
2021/12/14 07:41:51;;;;;;;26.00;17.17;;;10.40;99.90;;;;;;5010457;28;20209;-23
2021/12/14 07:44:22;;;;;;;25.80;18.57;;;10.40;99.90;;;;;;5008645;28;20225;-22
2021/12/14 07:47:02;;;;;;;24.87;17.70;;;10.40;99.90;;;;;;5010594;28;20213;-23
2021/12/14 07:49:45;;;;;;;25.77;17.27;;;10.40;99.90;;;;;;5011093;28;20301;-23
2021/12/14 07:52:21;;;;;;;27.77;17.13;;;10.40;99.90;;;;;;5012678;28;20229;-23
2021/12/14 07:55:03;;;;;;;26.50;17.53;;;10.40;99.90;;;;;;5012881;28;20235;-23
2021/12/14 07:57:34;;;;;;;27.10;17.63;;;10.40;99.90;;;;;;5020194;28;20233;-23
2021/12/14 08:00:16;;;;;;;27.20;17.50;;;10.40;99.90;;;;;;5012320;28;20292;-23
2021/12/14 08:02:49;;;;;;;30.10;18.70;;;10.40;99.90;;;;;;5018338;28;20553;-23
2021/12/14 08:05:30;;;;;;;27.23;18.10;;;10.40;99.90;;;;;;5012874;28;20332;-23
2021/12/14 08:08:16;;;;;;;28.13;18.77;;;10.40;99.90;;;;;;5025832;28;20197;-23
2021/12/14 08:11:09;;;;;;;27.63;18.67;;;10.40;99.90;;;;;;5022875;28;20917;-24
2021/12/14 08:13:51;;;;;;;29.43;17.77;;;10.40;99.90;;;;;;5019449;28;20240;-24
2021/12/14 08:16:19;;;;;;;27.33;18.83;;;10.40;99.90;;;;;;5008179;28;20650;-24
2021/12/14 08:18:48;;;;;;;29.47;18.90;;;10.40;99.90;;;;;;5022751;28;20205;-24
2021/12/14 08:21:20;;;;;;;28.07;18.50;;;10.40;99.90;;;;;;5020175;28;20197;-24
2021/12/14 08:23:53;;;;;;;30.77;18.97;;;10.40;99.90;;;;;;5020972;28;20201;-24
2021/12/14 08:26:32;;;;;;;31.50;19.83;;;10.40;99.90;;;;;;5022119;28;20983;-24
2021/12/14 08:29:13;;;;;;;27.77;18.47;;;10.50;99.90;;;;;;5011626;28;20295;-24
2021/12/14 08:31:45;;;;;;;30.60;19.03;;;10.50;99.90;;;;;;5009867;28;20284;-24
2021/12/14 08:34:25;;;;;;;29.33;19.40;;;10.50;99.90;;;;;;5025700;28;20212;-24
2021/12/14 08:37:08;;;;;;;29.50;19.30;;;10.50;99.90;;;;;;5017213;28;20235;-24
2021/12/14 08:40:03;;;;;;;29.33;19.40;;;10.50;99.90;;;;;;5008865;28;20209;-24
2021/12/14 08:43:02;;;;;;;28.97;18.93;;;10.50;99.90;;;;;;5019772;28;20209;-23
2021/12/14 08:45:34;;;;;;;32.00;20.67;;;10.50;99.90;;;;;;5018268;28;20786;-24
2021/12/14 08:48:02;;;;;;;31.70;19.33;;;10.50;99.90;;;;;;5022237;28;20200;-24
2021/12/14 08:50:41;;;;;;;35.33;20.43;;;10.50;99.90;;;;;;5007731;28;20209;-24
2021/12/14 08:53:11;;;;;;;31.60;19.90;;;10.50;99.90;;;;;;5018078;28;20208;-26
2021/12/14 08:55:43;;;;;;;30.80;20.13;;;10.50;99.90;;;;;;5027589;28;20212;-24
2021/12/14 08:58:13;;;;;;;30.90;19.63;;;10.50;99.90;;;;;;5025433;28;20201;-24
2021/12/14 09:00:51;;;;;;;27.50;19.03;;;10.50;99.90;;;;;;5021022;28;20237;-24
2021/12/14 09:03:32;;;;;;;29.57;19.53;;;10.50;99.90;;;;;;5019764;28;20292;-24
2021/12/14 09:06:07;;;;;;;29.13;19.20;;;10.60;99.90;;;;;;5006426;28;20210;-23
2021/12/14 09:08:42;;;;;;;32.50;19.43;;;10.60;99.90;;;;;;5006471;28;20723;-24
2021/12/14 09:11:14;;;;;;;41.00;21.70;;;10.60;99.90;;;;;;5006891;28;20200;-23
2021/12/14 09:13:41;;;;;;;38.60;20.57;;;10.60;99.90;;;;;;5009546;28;20255;-24
2021/12/14 09:16:19;;;;;;;34.50;20.93;;;10.60;99.90;;;;;;5010243;28;20233;-24
2021/12/14 09:18:51;;;;;;;31.90;19.00;;;10.70;99.90;;;;;;5017962;28;20224;-23
2021/12/14 09:21:28;;;;;;;41.57;20.97;;;10.70;99.90;;;;;;5011986;28;20216;-24
2021/12/14 09:24:00;;;;;;;46.03;22.77;;;10.70;99.90;;;;;;5007899;28;20198;-24
2021/12/14 09:26:33;;;;;;;41.93;21.33;;;10.70;99.90;;;;;;5016002;28;20231;-23
2021/12/14 09:29:07;;;;;;;32.80;19.93;;;10.70;99.90;;;;;;5024399;28;20264;-23
2021/12/14 09:31:38;;;;;;;30.27;19.30;;;10.70;99.90;;;;;;5012337;28;20225;-27
2021/12/14 09:34:10;;;;;;;31.13;20.47;;;10.80;99.90;;;;;;5009150;28;20193;-26
2021/12/14 09:36:40;;;;;;;32.13;20.27;;;10.80;99.90;;;;;;5026210;28;20224;-24
2021/12/14 09:39:14;;;;;;;27.97;18.87;;;10.80;99.90;;;;;;5010268;28;20190;-24
2021/12/14 09:41:53;;;;;;;31.87;19.97;;;10.80;99.90;;;;;;5024269;28;20196;-24
2021/12/14 09:44:26;;;;;;;30.77;19.37;;;10.90;99.90;;;;;;5027829;28;20209;-23
2021/12/14 09:47:00;;;;;;;28.33;18.30;;;10.90;99.90;;;;;;5028262;28;20778;-22
2021/12/14 09:49:31;;;;;;;29.57;18.67;;;10.90;99.90;;;;;;5015196;28;20649;-23
2021/12/14 09:52:09;;;;;;;30.70;18.77;;;10.90;99.90;;;;;;5014909;28;20595;-24
2021/12/14 09:54:40;;;;;;;32.63;19.80;;;10.90;99.90;;;;;;5027835;28;20305;-24
2021/12/14 09:57:30;;;;;;;35.43;19.03;;;10.90;99.90;;;;;;5019733;28;20224;-24
2021/12/14 10:00:03;;;;;;;32.57;20.40;;;10.90;99.90;;;;;;5024077;28;20620;-24
2021/12/14 10:02:39;;;;;;;33.77;19.70;;;10.90;99.90;;;;;;5040458;28;20238;-24
2021/12/14 10:05:21;;;;;;;40.13;19.80;;;11.00;99.90;;;;;;5016578;28;20201;-24
2021/12/14 10:07:49;;;;;;;33.60;19.67;;;11.00;99.90;;;;;;5021257;28;20197;-24
2021/12/14 10:10:20;;;;;;;31.53;19.63;;;11.00;99.90;;;;;;5021143;28;20217;-24
2021/12/14 10:12:56;;;;;;;35.17;20.23;;;11.00;99.90;;;;;;5019741;28;20212;-24
2021/12/14 10:15:46;;;;;;;53.10;22.30;;;11.10;99.90;;;;;;5020643;28;20300;-24
2021/12/14 10:18:20;;;;;;;46.17;20.20;;;11.10;99.90;;;;;;5015393;28;20634;-24
2021/12/14 10:20:51;;;;;;;31.83;19.57;;;11.10;99.90;;;;;;5022339;28;20219;-24
2021/12/14 10:23:21;;;;;;;26.63;18.20;;;11.10;99.90;;;;;;5011822;28;20202;-24
2021/12/14 10:25:49;;;;;;;29.63;18.80;;;11.10;99.90;;;;;;5016300;28;20624;-24
2021/12/14 10:28:17;;;;;;;28.87;19.07;;;11.20;99.90;;;;;;5034338;28;20690;-24
2021/12/14 10:30:56;;;;;;;32.07;18.80;;;11.20;99.90;;;;;;5016208;28;20205;-24
2021/12/14 10:33:26;;;;;;;28.00;19.03;;;11.20;99.90;;;;;;5012856;28;20660;-24
2021/12/14 10:35:59;;;;;;;25.53;17.57;;;11.20;99.90;;;;;;5026648;28;20201;-24
2021/12/14 10:38:37;;;;;;;29.37;18.83;;;11.20;99.90;;;;;;5014951;28;20208;-23
2021/12/14 10:44:01;;;;;;;29.23;19.33;;;11.20;99.90;;;;;;5015236;28;20209;-24
2021/12/14 10:46:37;;;;;;;30.83;19.87;;;11.20;99.90;;;;;;5015569;28;20232;-24
2021/12/14 10:49:08;;;;;;;30.87;18.60;;;11.20;99.90;;;;;;5009943;28;20207;-25
2021/12/14 10:51:40;;;;;;;34.40;19.70;;;11.30;99.90;;;;;;5017457;28;20324;-24
2021/12/14 10:54:12;;;;;;;30.73;18.57;;;11.30;99.90;;;;;;5015656;28;20229;-24
2021/12/14 10:56:47;;;;;;;28.60;18.17;;;11.30;99.90;;;;;;5021717;28;20232;-24
2021/12/14 10:59:19;;;;;;;29.77;18.50;;;11.30;99.90;;;;;;5010338;28;20714;-24
2021/12/14 11:01:51;;;;;;;28.67;19.17;;;11.30;99.90;;;;;;5013875;28;20197;-24
2021/12/14 11:04:33;;;;;;;27.93;18.57;;;11.40;99.90;;;;;;5009418;28;20216;-24
2021/12/14 11:07:05;;;;;;;27.30;17.27;;;11.40;99.90;;;;;;5019616;28;20201;-24
2021/12/14 11:09:52;;;;;;;27.43;18.00;;;11.40;99.90;;;;;;5014526;28;20817;-24
2021/12/14 11:12:26;;;;;;;36.20;19.17;;;11.40;99.90;;;;;;5016103;28;20332;-24
2021/12/14 11:15:00;;;;;;;29.10;17.80;;;11.50;99.90;;;;;;5025953;28;20221;-24
2021/12/14 11:20:38;;;;;;;26.00;17.67;;;11.50;99.90;;;;;;5024698;28;20228;-24
2021/12/14 11:23:18;;;;;;;28.57;18.60;;;11.50;99.90;;;;;;5009890;28;20218;-24
2021/12/14 11:25:49;;;;;;;25.93;17.90;;;11.50;99.90;;;;;;5014845;28;20194;-24
2021/12/14 11:28:25;;;;;;;26.20;17.80;;;11.50;99.90;;;;;;5008524;28;20233;-24
2021/12/14 11:31:01;;;;;;;29.30;18.53;;;11.50;99.90;;;;;;5020578;28;20619;-24
2021/12/14 11:33:43;;;;;;;26.17;17.47;;;11.60;99.90;;;;;;5007480;28;20225;-24
2021/12/14 11:36:16;;;;;;;28.77;17.57;;;11.60;99.90;;;;;;5008997;28;20224;-24
2021/12/14 11:38:49;;;;;;;30.80;18.03;;;11.60;99.90;;;;;;5018709;28;20239;-24
2021/12/14 11:41:33;;;;;;;28.33;18.17;;;11.60;99.90;;;;;;5020299;28;20853;-24
2021/12/14 11:44:11;;;;;;;23.73;16.20;;;11.60;99.90;;;;;;5009720;28;20300;-24
2021/12/14 11:47:03;;;;;;;26.93;16.73;;;11.70;99.90;;;;;;5015827;28;20192;-24
2021/12/14 11:50:04;;;;;;;26.27;17.50;;;11.70;99.90;;;;;;5010010;28;20232;-24
2021/12/14 11:52:57;;;;;;;25.90;17.50;;;11.70;99.90;;;;;;5010498;28;20298;-24
2021/12/14 11:55:31;;;;;;;28.37;18.73;;;11.70;99.90;;;;;;5007905;28;20288;-24
2021/12/14 11:58:19;;;;;;;24.33;16.67;;;11.80;99.90;;;;;;5013360;28;20236;-24
2021/12/14 12:00:49;;;;;;;24.30;16.70;;;11.80;99.90;;;;;;5010373;28;20708;-24
2021/12/14 12:03:47;;;;;;;27.70;17.67;;;11.80;99.90;;;;;;5008841;28;20194;-24
2021/12/14 12:12:07;;;;;;;27.97;18.67;;;11.90;99.90;;;;;;5019290;28;20316;-24
2021/12/14 12:14:41;;;;;;;27.97;17.17;;;11.90;99.90;;;;;;5025607;28;20211;-24
2021/12/14 12:17:26;;;;;;;23.53;16.93;;;11.90;99.90;;;;;;5021947;28;20221;-24
2021/12/14 12:20:31;;;;;;;27.90;17.03;;;12.00;99.90;;;;;;5008529;28;20305;-23
2021/12/14 12:23:01;;;;;;;25.70;17.13;;;12.00;99.90;;;;;;5013379;28;20298;-24
2021/12/14 12:25:47;;;;;;;23.23;15.93;;;12.00;99.90;;;;;;5011885;28;20672;-26
2021/12/14 12:28:25;;;;;;;28.80;18.37;;;12.00;99.90;;;;;;5008501;28;20309;-24
2021/12/14 12:31:04;;;;;;;46.17;20.07;;;12.00;99.90;;;;;;5027297;28;20209;-23
2021/12/14 12:33:36;;;;;;;30.27;18.47;;;12.00;99.90;;;;;;5008550;28;20213;-24
2021/12/14 12:36:15;;;;;;;27.53;17.73;;;12.00;99.90;;;;;;5013391;28;20212;-24
2021/12/14 12:38:48;;;;;;;32.73;18.13;;;12.10;99.90;;;;;;5020815;28;20235;-24
2021/12/14 12:41:28;;;;;;;28.17;18.03;;;12.10;99.90;;;;;;5021094;28;20267;-24
2021/12/14 12:44:01;;;;;;;26.67;18.20;;;12.10;99.90;;;;;;5026173;28;20659;-24
2021/12/14 12:46:35;;;;;;;24.47;17.13;;;12.10;99.90;;;;;;5010967;28;20205;-24
2021/12/14 12:49:27;;;;;;;25.73;18.10;;;12.20;99.90;;;;;;5007693;28;20694;-23
2021/12/14 12:52:00;;;;;;;29.10;17.90;;;12.20;99.90;;;;;;5007725;28;20244;-24
2021/12/14 12:54:34;;;;;;;27.43;17.93;;;12.20;99.90;;;;;;5007999;28;20205;-24
2021/12/14 12:57:08;;;;;;;26.17;17.53;;;12.20;99.90;;;;;;5022586;28;20420;-24
2021/12/14 12:59:41;;;;;;;25.57;17.60;;;12.20;99.90;;;;;;5024560;28;20209;-24
2021/12/14 13:02:21;;;;;;;25.00;17.10;;;12.20;99.90;;;;;;5025630;28;20201;-24
2021/12/14 13:04:54;;;;;;;25.17;17.83;;;12.20;99.90;;;;;;5024396;28;20201;-24
2021/12/14 13:07:40;;;;;;;25.70;17.83;;;12.20;99.90;;;;;;5017525;28;20514;-24
2021/12/14 13:10:31;;;;;;;25.53;17.60;;;12.20;99.90;;;;;;5017660;28;20558;-24
2021/12/14 13:13:05;;;;;;;26.17;16.40;;;12.20;99.90;;;;;;5008103;28;20202;-26
2021/12/14 13:15:46;;;;;;;26.47;17.70;;;12.20;99.90;;;;;;5015996;28;20211;-27
2021/12/14 13:18:21;;;;;;;29.53;18.67;;;12.20;99.90;;;;;;5011985;28;20228;-24
2021/12/14 13:20:57;;;;;;;28.67;18.60;;;12.20;99.90;;;;;;5014143;28;20554;-24
2021/12/14 13:23:45;;;;;;;26.80;18.57;;;12.20;99.90;;;;;;5019586;28;20239;-24
2021/12/14 13:26:36;;;;;;;27.17;18.13;;;12.30;99.90;;;;;;5015257;28;21033;-24
2021/12/14 13:29:12;;;;;;;25.40;17.57;;;12.30;99.90;;;;;;5011280;28;20214;-24
2021/12/14 13:31:51;;;;;;;26.70;18.07;;;12.30;99.90;;;;;;5016462;28;20205;-24
2021/12/14 13:34:40;;;;;;;32.50;18.13;;;12.30;99.90;;;;;;5014593;28;20208;-24
2021/12/14 13:37:09;;;;;;;31.33;18.83;;;12.30;99.90;;;;;;5010740;28;20221;-24
2021/12/14 13:39:40;;;;;;;23.13;16.97;;;12.30;99.90;;;;;;5012772;28;20197;-24
2021/12/14 13:42:07;;;;;;;23.40;17.37;;;12.30;99.90;;;;;;5011095;28;20201;-24